Redwood City, CA

2:26 PM PST op 24 november 2014 (GMT -0800)
San Carlos | Change Station
CLOSE
Current Station
Luchthaven
Location: San Carlos,
Geometrische hoogte: 3 ft
Nabije weerstations

Hoogte 3 ft 37.51 °N, 122.25 °W | Updated 39 minutes ago

Helder
Helder
64 °F
Voelt als 64 °F
N
0
Wind Variabel Wind van noord

Vandaag
Hoog -- | Laag -- °F
--% Kans op neerslag
Gisteren
Hoog -- | Laag -- °F
Precip. -- inches
6:58 AM 4:53 PM
Wassende halvemaan, 7% visible
Druk 30.37 inches
Zicht 10.0 mijlen
Wolken Gering 20000 ft
Dauwpunt 41 °F
Vochtigheid 42%
Neerslag 0.00 inches
Dikte sneeuw Niet beschikbaar.
UV 2 van de 12
Pollen 2.50 van de 12
Luchtkwaliteit Niet beschikbaar.
Flu Activity Niet beschikbaar.
METAR KSQL 242147Z 00000KT 10SM FEW200 18/05 A3037

More Conditions Fewer Conditions

Druk 30.37 inches
Zicht 10.0 mijlen
Wolken Gering 20000 ft
Dauwpunt 41 °F
Vochtigheid 42%
Neerslag 0.00 inches
Dikte sneeuw Niet beschikbaar.
UV 2 van de 12
Pollen 2.50 van de 12
Luchtkwaliteit Niet beschikbaar.
Flu Activity Niet beschikbaar.
METAR KSQL 242147Z 00000KT 10SM FEW200 18/05 A3037

More Conditions Fewer Conditions

10-Day Weather Forecast

Almanac

Astronomie

Nov. 24, 2014 Opkomst Ondergang
Werkelijke tijd
Burgerlijke schemering
Nautische schemering
Astronomische schemering
Maan
Golflengte van het zichtbare licht
Daglengte
Tomorrow will be .
, % of the Moon is Illuminated

Extremen vandaag

State Highs State Lows

Community

WunderPhotos

Upload Photos

1,773,427 foto’s ge-upload!

WunderBlogs® & News

Nearby

Luchtkwaliteit

  Luchtkwaliteit LK-index Verontreinigende stof
Not available.

Dikte sneeuw

Station Depth Geometrische hoogte

Aardbevingen

Stad Distance Mag. Time & Date
Minimum magnitude displayed is 2.5.

Watertemperatuur langs de kust

Plaats Temperatuur

Nabije weerstations